sensor_id;sensor_type;location;lat;lon;timestamp;P1;durP1;ratioP1;P2;durP2;ratioP2
62523;SDS011;53689;56.878;60.672;2023-02-16T00:00:11;10.63;;;6.70;;
62523;SDS011;53689;56.878;60.672;2023-02-16T00:02:43;9.90;;;6.95;;
62523;SDS011;53689;56.878;60.672;2023-02-16T00:05:16;9.98;;;6.20;;
62523;SDS011;53689;56.878;60.672;2023-02-16T00:07:48;11.13;;;6.90;;
62523;SDS011;53689;56.878;60.672;2023-02-16T00:10:16;9.88;;;6.85;;
62523;SDS011;53689;56.878;60.672;2023-02-16T00:12:46;14.13;;;7.60;;
62523;SDS011;53689;56.878;60.672;2023-02-16T00:15:15;12.00;;;7.32;;
62523;SDS011;53689;56.878;60.672;2023-02-16T00:17:44;12.73;;;7.00;;
62523;SDS011;53689;56.878;60.672;2023-02-16T00:20:13;10.10;;;6.68;;
62523;SDS011;53689;56.878;60.672;2023-02-16T00:22:41;11.00;;;6.93;;
62523;SDS011;53689;56.878;60.672;2023-02-16T00:25:09;11.98;;;7.45;;
62523;SDS011;53689;56.878;60.672;2023-02-16T00:27:37;11.98;;;7.32;;
62523;SDS011;53689;56.878;60.672;2023-02-16T00:30:08;11.02;;;6.72;;
62523;SDS011;53689;56.878;60.672;2023-02-16T00:32:40;11.95;;;7.28;;
62523;SDS011;53689;56.878;60.672;2023-02-16T00:35:12;15.63;;;8.10;;
62523;SDS011;53689;56.878;60.672;2023-02-16T00:37:41;12.65;;;7.30;;
62523;SDS011;53689;56.878;60.672;2023-02-16T00:40:09;11.23;;;7.13;;
62523;SDS011;53689;56.878;60.672;2023-02-16T00:42:37;11.50;;;6.95;;
62523;SDS011;53689;56.878;60.672;2023-02-16T00:45:10;11.88;;;7.63;;
62523;SDS011;53689;56.878;60.672;2023-02-16T00:47:42;13.02;;;7.93;;
62523;SDS011;53689;56.878;60.672;2023-02-16T00:50:14;11.93;;;6.78;;
62523;SDS011;53689;56.878;60.672;2023-02-16T00:52:44;14.10;;;8.00;;
62523;SDS011;53689;56.878;60.672;2023-02-16T00:55:14;11.93;;;7.47;;
62523;SDS011;53689;56.878;60.672;2023-02-16T01:02:48;13.55;;;8.07;;
62523;SDS011;53689;56.878;60.672;2023-02-16T01:05:18;13.27;;;7.47;;
62523;SDS011;53689;56.878;60.672;2023-02-16T01:07:46;13.30;;;8.10;;
62523;SDS011;53689;56.878;60.672;2023-02-16T01:10:15;12.82;;;8.30;;
62523;SDS011;53689;56.878;60.672;2023-02-16T01:12:43;12.00;;;8.02;;
62523;SDS011;53689;56.878;60.672;2023-02-16T01:15:11;13.43;;;7.70;;
62523;SDS011;53689;56.878;60.672;2023-02-16T01:17:42;13.43;;;8.07;;
62523;SDS011;53689;56.878;60.672;2023-02-16T01:20:13;14.05;;;8.73;;
62523;SDS011;53689;56.878;60.672;2023-02-16T01:22:41;13.30;;;8.13;;
62523;SDS011;53689;56.878;60.672;2023-02-16T01:25:09;13.35;;;8.25;;
62523;SDS011;53689;56.878;60.672;2023-02-16T01:27:37;13.35;;;7.95;;
62523;SDS011;53689;56.878;60.672;2023-02-16T01:30:07;18.38;;;8.00;;
62523;SDS011;53689;56.878;60.672;2023-02-16T01:32:39;12.90;;;7.43;;
62523;SDS011;53689;56.878;60.672;2023-02-16T01:35:08;13.25;;;8.05;;
62523;SDS011;53689;56.878;60.672;2023-02-16T01:37:36;13.52;;;8.30;;
62523;SDS011;53689;56.878;60.672;2023-02-16T01:40:04;12.07;;;7.63;;
62523;SDS011;53689;56.878;60.672;2023-02-16T01:42:33;11.93;;;7.25;;
62523;SDS011;53689;56.878;60.672;2023-02-16T01:45:12;13.52;;;8.20;;
62523;SDS011;53689;56.878;60.672;2023-02-16T01:47:45;13.65;;;8.38;;
62523;SDS011;53689;56.878;60.672;2023-02-16T01:50:18;13.43;;;8.10;;
62523;SDS011;53689;56.878;60.672;2023-02-16T01:52:50;11.90;;;6.97;;
62523;SDS011;53689;56.878;60.672;2023-02-16T01:55:22;13.13;;;8.57;;
62523;SDS011;53689;56.878;60.672;2023-02-16T01:57:53;12.88;;;7.85;;
62523;SDS011;53689;56.878;60.672;2023-02-16T02:00:27;13.15;;;8.30;;
62523;SDS011;53689;56.878;60.672;2023-02-16T02:03:00;14.52;;;8.75;;
62523;SDS011;53689;56.878;60.672;2023-02-16T02:05:32;14.13;;;8.70;;
62523;SDS011;53689;56.878;60.672;2023-02-16T02:08:01;13.73;;;8.35;;
62523;SDS011;53689;56.878;60.672;2023-02-16T02:10:38;16.67;;;10.18;;
62523;SDS011;53689;56.878;60.672;2023-02-16T02:13:13;13.70;;;9.23;;
62523;SDS011;53689;56.878;60.672;2023-02-16T02:15:48;15.85;;;9.35;;
62523;SDS011;53689;56.878;60.672;2023-02-16T02:18:16;14.48;;;8.77;;
62523;SDS011;53689;56.878;60.672;2023-02-16T02:21:01;15.10;;;8.55;;
62523;SDS011;53689;56.878;60.672;2023-02-16T02:23:43;14.70;;;8.93;;
62523;SDS011;53689;56.878;60.672;2023-02-16T02:32:26;14.35;;;9.13;;
62523;SDS011;53689;56.878;60.672;2023-02-16T02:35:10;13.65;;;8.65;;
62523;SDS011;53689;56.878;60.672;2023-02-16T02:37:47;18.02;;;9.15;;
62523;SDS011;53689;56.878;60.672;2023-02-16T02:40:27;16.73;;;9.05;;
62523;SDS011;53689;56.878;60.672;2023-02-16T02:43:06;14.48;;;8.52;;
62523;SDS011;53689;56.878;60.672;2023-02-16T02:45:42;19.83;;;11.23;;
62523;SDS011;53689;56.878;60.672;2023-02-16T02:48:13;12.93;;;9.30;;
62523;SDS011;53689;56.878;60.672;2023-02-16T02:50:48;12.38;;;8.18;;
62523;SDS011;53689;56.878;60.672;2023-02-16T02:53:18;14.18;;;9.32;;
62523;SDS011;53689;56.878;60.672;2023-02-16T02:55:47;14.93;;;9.60;;
62523;SDS011;53689;56.878;60.672;2023-02-16T02:58:19;12.98;;;8.50;;
62523;SDS011;53689;56.878;60.672;2023-02-16T03:00:52;16.88;;;9.45;;
62523;SDS011;53689;56.878;60.672;2023-02-16T03:03:21;15.82;;;9.93;;
62523;SDS011;53689;56.878;60.672;2023-02-16T03:05:52;15.70;;;9.85;;
62523;SDS011;53689;56.878;60.672;2023-02-16T03:08:23;14.27;;;9.10;;
62523;SDS011;53689;56.878;60.672;2023-02-16T03:10:56;13.38;;;8.05;;
62523;SDS011;53689;56.878;60.672;2023-02-16T03:13:33;14.65;;;9.63;;
62523;SDS011;53689;56.878;60.672;2023-02-16T03:16:04;14.07;;;8.68;;
62523;SDS011;53689;56.878;60.672;2023-02-16T03:18:36;13.93;;;8.90;;
62523;SDS011;53689;56.878;60.672;2023-02-16T03:21:06;17.15;;;10.85;;
62523;SDS011;53689;56.878;60.672;2023-02-16T03:23:34;14.55;;;8.75;;
62523;SDS011;53689;56.878;60.672;2023-02-16T03:26:06;17.98;;;10.23;;
62523;SDS011;53689;56.878;60.672;2023-02-16T03:28:35;14.57;;;10.10;;
62523;SDS011;53689;56.878;60.672;2023-02-16T03:31:07;14.50;;;9.30;;
62523;SDS011;53689;56.878;60.672;2023-02-16T03:33:37;17.60;;;10.15;;
62523;SDS011;53689;56.878;60.672;2023-02-16T03:36:06;13.55;;;9.07;;
62523;SDS011;53689;56.878;60.672;2023-02-16T03:38:34;14.95;;;9.68;;
62523;SDS011;53689;56.878;60.672;2023-02-16T03:41:02;18.38;;;9.88;;
62523;SDS011;53689;56.878;60.672;2023-02-16T03:43:31;14.88;;;9.35;;
62523;SDS011;53689;56.878;60.672;2023-02-16T03:46:00;15.93;;;9.52;;
62523;SDS011;53689;56.878;60.672;2023-02-16T03:48:28;13.88;;;9.07;;
62523;SDS011;53689;56.878;60.672;2023-02-16T03:50:55;14.73;;;9.45;;
62523;SDS011;53689;56.878;60.672;2023-02-16T03:53:23;13.95;;;9.38;;
62523;SDS011;53689;56.878;60.672;2023-02-16T03:55:51;14.75;;;9.18;;
62523;SDS011;53689;56.878;60.672;2023-02-16T03:58:19;15.50;;;9.65;;
62523;SDS011;53689;56.878;60.672;2023-02-16T04:00:48;13.82;;;9.23;;
62523;SDS011;53689;56.878;60.672;2023-02-16T04:03:18;17.50;;;10.43;;
62523;SDS011;53689;56.878;60.672;2023-02-16T04:05:46;16.95;;;10.98;;
62523;SDS011;53689;56.878;60.672;2023-02-16T04:08:14;18.75;;;11.48;;
62523;SDS011;53689;56.878;60.672;2023-02-16T04:10:41;16.90;;;10.82;;
62523;SDS011;53689;56.878;60.672;2023-02-16T04:13:09;20.65;;;11.48;;
62523;SDS011;53689;56.878;60.672;2023-02-16T04:15:37;15.68;;;9.43;;
62523;SDS011;53689;56.878;60.672;2023-02-16T04:18:04;16.17;;;10.05;;
62523;SDS011;53689;56.878;60.672;2023-02-16T04:20:34;15.60;;;10.25;;
62523;SDS011;53689;56.878;60.672;2023-02-16T04:23:02;16.60;;;11.05;;
62523;SDS011;53689;56.878;60.672;2023-02-16T04:25:30;17.25;;;10.45;;
62523;SDS011;53689;56.878;60.672;2023-02-16T04:27:58;18.05;;;10.18;;
62523;SDS011;53689;56.878;60.672;2023-02-16T04:30:27;16.90;;;10.70;;
62523;SDS011;53689;56.878;60.672;2023-02-16T04:32:56;19.50;;;11.48;;
62523;SDS011;53689;56.878;60.672;2023-02-16T04:35:24;16.30;;;10.20;;
62523;SDS011;53689;56.878;60.672;2023-02-16T04:37:53;25.98;;;12.88;;
62523;SDS011;53689;56.878;60.672;2023-02-16T04:40:21;18.63;;;11.27;;
62523;SDS011;53689;56.878;60.672;2023-02-16T04:42:48;28.27;;;13.27;;
62523;SDS011;53689;56.878;60.672;2023-02-16T04:45:16;17.52;;;10.38;;
62523;SDS011;53689;56.878;60.672;2023-02-16T04:47:44;20.35;;;12.75;;
62523;SDS011;53689;56.878;60.672;2023-02-16T04:50:12;21.50;;;12.70;;
62523;SDS011;53689;56.878;60.672;2023-02-16T04:52:40;22.88;;;13.80;;
62523;SDS011;53689;56.878;60.672;2023-02-16T04:55:09;25.10;;;13.00;;
62523;SDS011;53689;56.878;60.672;2023-02-16T04:57:37;22.38;;;13.80;;
62523;SDS011;53689;56.878;60.672;2023-02-16T05:00:06;25.67;;;14.88;;
62523;SDS011;53689;56.878;60.672;2023-02-16T05:02:35;26.15;;;14.73;;
62523;SDS011;53689;56.878;60.672;2023-02-16T05:05:04;24.57;;;15.10;;
62523;SDS011;53689;56.878;60.672;2023-02-16T05:07:33;26.40;;;15.40;;
62523;SDS011;53689;56.878;60.672;2023-02-16T05:10:00;27.08;;;15.52;;
62523;SDS011;53689;56.878;60.672;2023-02-16T05:12:29;29.73;;;16.13;;
62523;SDS011;53689;56.878;60.672;2023-02-16T05:14:57;29.20;;;16.45;;
62523;SDS011;53689;56.878;60.672;2023-02-16T05:17:24;33.08;;;17.38;;
62523;SDS011;53689;56.878;60.672;2023-02-16T05:19:53;33.13;;;16.98;;
62523;SDS011;53689;56.878;60.672;2023-02-16T05:22:23;28.23;;;16.02;;
62523;SDS011;53689;56.878;60.672;2023-02-16T05:24:51;34.30;;;17.85;;
62523;SDS011;53689;56.878;60.672;2023-02-16T05:27:19;35.15;;;17.80;;
62523;SDS011;53689;56.878;60.672;2023-02-16T05:32:17;27.23;;;16.20;;
62523;SDS011;53689;56.878;60.672;2023-02-16T05:34:45;36.40;;;18.77;;
62523;SDS011;53689;56.878;60.672;2023-02-16T05:37:14;32.70;;;16.80;;
62523;SDS011;53689;56.878;60.672;2023-02-16T05:39:42;34.28;;;17.63;;
62523;SDS011;53689;56.878;60.672;2023-02-16T05:42:11;32.03;;;17.60;;
62523;SDS011;53689;56.878;60.672;2023-02-16T05:44:39;30.02;;;17.13;;
62523;SDS011;53689;56.878;60.672;2023-02-16T05:47:08;33.17;;;18.52;;
62523;SDS011;53689;56.878;60.672;2023-02-16T05:49:35;39.20;;;19.63;;
62523;SDS011;53689;56.878;60.672;2023-02-16T05:52:03;34.95;;;20.33;;
62523;SDS011;53689;56.878;60.672;2023-02-16T05:54:30;35.38;;;19.40;;
62523;SDS011;53689;56.878;60.672;2023-02-16T05:56:59;37.50;;;20.17;;
62523;SDS011;53689;56.878;60.672;2023-02-16T05:59:26;40.28;;;19.02;;
62523;SDS011;53689;56.878;60.672;2023-02-16T06:01:54;42.03;;;19.15;;
62523;SDS011;53689;56.878;60.672;2023-02-16T06:04:23;43.83;;;21.85;;
62523;SDS011;53689;56.878;60.672;2023-02-16T06:06:51;36.17;;;21.00;;
62523;SDS011;53689;56.878;60.672;2023-02-16T06:09:18;39.85;;;20.27;;
62523;SDS011;53689;56.878;60.672;2023-02-16T06:11:46;38.60;;;20.83;;
62523;SDS011;53689;56.878;60.672;2023-02-16T06:14:14;39.30;;;20.90;;
62523;SDS011;53689;56.878;60.672;2023-02-16T06:16:44;37.42;;;20.60;;
62523;SDS011;53689;56.878;60.672;2023-02-16T06:19:13;55.95;;;25.08;;
62523;SDS011;53689;56.878;60.672;2023-02-16T06:21:43;38.05;;;22.08;;
62523;SDS011;53689;56.878;60.672;2023-02-16T06:24:11;44.67;;;23.90;;
62523;SDS011;53689;56.878;60.672;2023-02-16T06:26:39;39.53;;;21.93;;
62523;SDS011;53689;56.878;60.672;2023-02-16T06:29:08;42.10;;;22.63;;
62523;SDS011;53689;56.878;60.672;2023-02-16T06:31:36;42.15;;;22.25;;
62523;SDS011;53689;56.878;60.672;2023-02-16T06:34:04;45.17;;;23.27;;
62523;SDS011;53689;56.878;60.672;2023-02-16T06:36:32;42.83;;;23.33;;
62523;SDS011;53689;56.878;60.672;2023-02-16T06:39:02;45.85;;;24.70;;
62523;SDS011;53689;56.878;60.672;2023-02-16T06:41:29;49.28;;;23.50;;
62523;SDS011;53689;56.878;60.672;2023-02-16T06:43:58;51.05;;;22.38;;
62523;SDS011;53689;56.878;60.672;2023-02-16T06:46:26;41.75;;;24.42;;
62523;SDS011;53689;56.878;60.672;2023-02-16T06:48:54;45.15;;;23.88;;
62523;SDS011;53689;56.878;60.672;2023-02-16T06:51:22;37.58;;;21.55;;
62523;SDS011;53689;56.878;60.672;2023-02-16T06:53:50;45.90;;;23.10;;
62523;SDS011;53689;56.878;60.672;2023-02-16T06:56:19;44.78;;;22.02;;
62523;SDS011;53689;56.878;60.672;2023-02-16T06:58:47;46.35;;;22.88;;
62523;SDS011;53689;56.878;60.672;2023-02-16T07:01:15;41.08;;;21.98;;
62523;SDS011;53689;56.878;60.672;2023-02-16T07:03:43;42.38;;;21.77;;
62523;SDS011;53689;56.878;60.672;2023-02-16T07:06:11;42.88;;;21.98;;
62523;SDS011;53689;56.878;60.672;2023-02-16T07:08:38;47.42;;;23.67;;
62523;SDS011;53689;56.878;60.672;2023-02-16T07:11:06;47.35;;;21.90;;
62523;SDS011;53689;56.878;60.672;2023-02-16T07:13:35;46.05;;;22.33;;
62523;SDS011;53689;56.878;60.672;2023-02-16T07:16:03;42.35;;;21.25;;
62523;SDS011;53689;56.878;60.672;2023-02-16T07:18:32;39.45;;;20.92;;
62523;SDS011;53689;56.878;60.672;2023-02-16T07:21:01;36.83;;;20.77;;
62523;SDS011;53689;56.878;60.672;2023-02-16T07:23:28;42.92;;;21.83;;
62523;SDS011;53689;56.878;60.672;2023-02-16T07:25:56;34.95;;;20.48;;
62523;SDS011;53689;56.878;60.672;2023-02-16T07:28:24;41.00;;;22.63;;
62523;SDS011;53689;56.878;60.672;2023-02-16T07:30:53;33.75;;;19.52;;
62523;SDS011;53689;56.878;60.672;2023-02-16T07:33:21;38.75;;;20.98;;
62523;SDS011;53689;56.878;60.672;2023-02-16T07:35:49;31.08;;;19.30;;
62523;SDS011;53689;56.878;60.672;2023-02-16T07:38:16;42.78;;;21.20;;
62523;SDS011;53689;56.878;60.672;2023-02-16T07:40:44;36.45;;;19.95;;
62523;SDS011;53689;56.878;60.672;2023-02-16T07:43:11;41.30;;;20.67;;
62523;SDS011;53689;56.878;60.672;2023-02-16T07:45:39;37.70;;;21.20;;
62523;SDS011;53689;56.878;60.672;2023-02-16T07:48:08;37.25;;;20.95;;
62523;SDS011;53689;56.878;60.672;2023-02-16T07:50:38;38.33;;;21.15;;
62523;SDS011;53689;56.878;60.672;2023-02-16T07:53:06;33.65;;;20.90;;
62523;SDS011;53689;56.878;60.672;2023-02-16T07:55:37;39.20;;;19.88;;
62523;SDS011;53689;56.878;60.672;2023-02-16T07:58:05;45.60;;;22.13;;
62523;SDS011;53689;56.878;60.672;2023-02-16T08:00:33;43.42;;;24.08;;
62523;SDS011;53689;56.878;60.672;2023-02-16T08:03:01;39.60;;;22.63;;
62523;SDS011;53689;56.878;60.672;2023-02-16T08:05:32;41.70;;;23.38;;
62523;SDS011;53689;56.878;60.672;2023-02-16T08:08:00;47.92;;;23.70;;
62523;SDS011;53689;56.878;60.672;2023-02-16T08:10:27;45.17;;;24.60;;
62523;SDS011;53689;56.878;60.672;2023-02-16T08:12:55;42.83;;;22.92;;
62523;SDS011;53689;56.878;60.672;2023-02-16T08:15:23;45.63;;;23.88;;
62523;SDS011;53689;56.878;60.672;2023-02-16T08:17:50;45.83;;;25.42;;
62523;SDS011;53689;56.878;60.672;2023-02-16T08:20:18;42.22;;;24.90;;
62523;SDS011;53689;56.878;60.672;2023-02-16T08:22:50;47.22;;;23.83;;
62523;SDS011;53689;56.878;60.672;2023-02-16T08:25:20;50.00;;;24.98;;
62523;SDS011;53689;56.878;60.672;2023-02-16T08:27:48;43.45;;;26.10;;
62523;SDS011;53689;56.878;60.672;2023-02-16T08:30:15;49.10;;;24.48;;
62523;SDS011;53689;56.878;60.672;2023-02-16T08:32:43;45.28;;;24.70;;
62523;SDS011;53689;56.878;60.672;2023-02-16T08:35:11;38.70;;;22.65;;
62523;SDS011;53689;56.878;60.672;2023-02-16T08:37:38;43.88;;;24.73;;
62523;SDS011;53689;56.878;60.672;2023-02-16T08:40:08;40.53;;;23.02;;
62523;SDS011;53689;56.878;60.672;2023-02-16T08:42:36;42.92;;;24.45;;
62523;SDS011;53689;56.878;60.672;2023-02-16T08:45:04;39.38;;;23.73;;
62523;SDS011;53689;56.878;60.672;2023-02-16T08:47:33;48.13;;;23.52;;
62523;SDS011;53689;56.878;60.672;2023-02-16T08:50:01;35.92;;;22.00;;
62523;SDS011;53689;56.878;60.672;2023-02-16T08:52:29;42.60;;;22.73;;
62523;SDS011;53689;56.878;60.672;2023-02-16T08:54:57;42.85;;;23.30;;
62523;SDS011;53689;56.878;60.672;2023-02-16T08:57:26;44.85;;;25.27;;
62523;SDS011;53689;56.878;60.672;2023-02-16T08:59:55;42.53;;;24.75;;
62523;SDS011;53689;56.878;60.672;2023-02-16T09:02:22;42.92;;;25.58;;
62523;SDS011;53689;56.878;60.672;2023-02-16T09:04:50;38.78;;;23.42;;
62523;SDS011;53689;56.878;60.672;2023-02-16T09:07:18;40.90;;;23.75;;
62523;SDS011;53689;56.878;60.672;2023-02-16T09:09:46;36.63;;;23.80;;
62523;SDS011;53689;56.878;60.672;2023-02-16T09:12:14;42.00;;;24.15;;
62523;SDS011;53689;56.878;60.672;2023-02-16T09:14:44;33.60;;;22.60;;
62523;SDS011;53689;56.878;60.672;2023-02-16T09:17:11;35.45;;;22.40;;
62523;SDS011;53689;56.878;60.672;2023-02-16T09:19:39;43.40;;;23.90;;
62523;SDS011;53689;56.878;60.672;2023-02-16T09:22:07;33.67;;;21.27;;
62523;SDS011;53689;56.878;60.672;2023-02-16T09:24:34;36.47;;;21.75;;
62523;SDS011;53689;56.878;60.672;2023-02-16T09:27:02;38.22;;;22.95;;
62523;SDS011;53689;56.878;60.672;2023-02-16T09:29:30;37.20;;;22.65;;
62523;SDS011;53689;56.878;60.672;2023-02-16T09:31:59;36.17;;;21.98;;
62523;SDS011;53689;56.878;60.672;2023-02-16T09:34:27;36.35;;;21.48;;
62523;SDS011;53689;56.878;60.672;2023-02-16T09:36:54;34.33;;;21.70;;
62523;SDS011;53689;56.878;60.672;2023-02-16T09:39:23;31.55;;;21.10;;
62523;SDS011;53689;56.878;60.672;2023-02-16T09:41:58;34.97;;;20.98;;
62523;SDS011;53689;56.878;60.672;2023-02-16T09:44:32;41.35;;;21.95;;
62523;SDS011;53689;56.878;60.672;2023-02-16T09:47:10;38.55;;;21.67;;
62523;SDS011;53689;56.878;60.672;2023-02-16T09:51:37;43.65;;;22.40;;
62523;SDS011;53689;56.878;60.672;2023-02-16T09:54:11;39.35;;;22.55;;
62523;SDS011;53689;56.878;60.672;2023-02-16T09:56:50;36.78;;;20.88;;
62523;SDS011;53689;56.878;60.672;2023-02-16T09:59:27;39.22;;;23.33;;
62523;SDS011;53689;56.878;60.672;2023-02-16T10:02:14;34.00;;;20.60;;
62523;SDS011;53689;56.878;60.672;2023-02-16T10:04:57;33.95;;;21.75;;
62523;SDS011;53689;56.878;60.672;2023-02-16T10:07:40;31.25;;;21.50;;
62523;SDS011;53689;56.878;60.672;2023-02-16T10:10:17;33.05;;;20.83;;
62523;SDS011;53689;56.878;60.672;2023-02-16T10:12:51;35.55;;;21.73;;
62523;SDS011;53689;56.878;60.672;2023-02-16T10:15:23;26.80;;;18.33;;
62523;SDS011;53689;56.878;60.672;2023-02-16T10:17:54;29.73;;;19.75;;
62523;SDS011;53689;56.878;60.672;2023-02-16T10:20:24;31.85;;;21.65;;
62523;SDS011;53689;56.878;60.672;2023-02-16T10:22:59;38.40;;;22.48;;
62523;SDS011;53689;56.878;60.672;2023-02-16T10:25:39;40.13;;;22.08;;
62523;SDS011;53689;56.878;60.672;2023-02-16T10:28:13;42.60;;;21.65;;
62523;SDS011;53689;56.878;60.672;2023-02-16T10:30:46;43.47;;;22.20;;
62523;SDS011;53689;56.878;60.672;2023-02-16T10:33:19;40.58;;;20.63;;
62523;SDS011;53689;56.878;60.672;2023-02-16T10:35:59;42.28;;;22.63;;
62523;SDS011;53689;56.878;60.672;2023-02-16T10:38:30;38.97;;;21.83;;
62523;SDS011;53689;56.878;60.672;2023-02-16T10:41:06;38.85;;;20.17;;
62523;SDS011;53689;56.878;60.672;2023-02-16T10:43:43;35.65;;;21.25;;
62523;SDS011;53689;56.878;60.672;2023-02-16T10:46:18;35.92;;;20.95;;
62523;SDS011;53689;56.878;60.672;2023-02-16T10:48:51;35.88;;;20.75;;
62523;SDS011;53689;56.878;60.672;2023-02-16T10:51:19;35.40;;;20.90;;
62523;SDS011;53689;56.878;60.672;2023-02-16T10:53:53;36.97;;;20.85;;
62523;SDS011;53689;56.878;60.672;2023-02-16T10:59:15;34.78;;;18.98;;
62523;SDS011;53689;56.878;60.672;2023-02-16T11:01:45;31.55;;;18.45;;
62523;SDS011;53689;56.878;60.672;2023-02-16T11:07:02;34.40;;;20.00;;
62523;SDS011;53689;56.878;60.672;2023-02-16T11:09:33;31.73;;;19.15;;
62523;SDS011;53689;56.878;60.672;2023-02-16T11:12:01;30.70;;;17.92;;
62523;SDS011;53689;56.878;60.672;2023-02-16T11:14:39;33.70;;;18.65;;
62523;SDS011;53689;56.878;60.672;2023-02-16T11:17:14;29.40;;;17.83;;
62523;SDS011;53689;56.878;60.672;2023-02-16T11:19:47;27.90;;;18.38;;
62523;SDS011;53689;56.878;60.672;2023-02-16T11:22:25;29.80;;;19.42;;
62523;SDS011;53689;56.878;60.672;2023-02-16T11:24:57;27.25;;;18.48;;
62523;SDS011;53689;56.878;60.672;2023-02-16T11:27:48;30.40;;;19.02;;
62523;SDS011;53689;56.878;60.672;2023-02-16T11:30:18;30.15;;;18.30;;
62523;SDS011;53689;56.878;60.672;2023-02-16T11:32:57;28.67;;;17.75;;
62523;SDS011;53689;56.878;60.672;2023-02-16T11:35:29;31.05;;;17.45;;
62523;SDS011;53689;56.878;60.672;2023-02-16T11:37:58;27.23;;;17.08;;
62523;SDS011;53689;56.878;60.672;2023-02-16T11:40:29;25.45;;;17.10;;
62523;SDS011;53689;56.878;60.672;2023-02-16T11:42:59;24.98;;;16.10;;
62523;SDS011;53689;56.878;60.672;2023-02-16T11:45:28;26.83;;;16.45;;
62523;SDS011;53689;56.878;60.672;2023-02-16T11:47:59;25.52;;;17.50;;
62523;SDS011;53689;56.878;60.672;2023-02-16T11:50:29;28.67;;;16.92;;
62523;SDS011;53689;56.878;60.672;2023-02-16T11:53:12;30.52;;;16.25;;
62523;SDS011;53689;56.878;60.672;2023-02-16T11:55:44;26.80;;;16.52;;
62523;SDS011;53689;56.878;60.672;2023-02-16T11:58:15;28.27;;;17.48;;
62523;SDS011;53689;56.878;60.672;2023-02-16T12:00:48;28.85;;;16.45;;
62523;SDS011;53689;56.878;60.672;2023-02-16T12:03:32;28.40;;;15.85;;
62523;SDS011;53689;56.878;60.672;2023-02-16T12:06:23;27.30;;;16.90;;
62523;SDS011;53689;56.878;60.672;2023-02-16T12:09:02;26.88;;;16.30;;
62523;SDS011;53689;56.878;60.672;2023-02-16T12:11:42;26.50;;;15.75;;
62523;SDS011;53689;56.878;60.672;2023-02-16T12:14:30;32.17;;;16.23;;
62523;SDS011;53689;56.878;60.672;2023-02-16T12:17:11;24.05;;;15.45;;
62523;SDS011;53689;56.878;60.672;2023-02-16T12:19:48;25.40;;;16.30;;
62523;SDS011;53689;56.878;60.672;2023-02-16T12:22:25;24.45;;;14.25;;
62523;SDS011;53689;56.878;60.672;2023-02-16T12:25:03;27.85;;;16.55;;
62523;SDS011;53689;56.878;60.672;2023-02-16T12:27:44;27.65;;;16.88;;
62523;SDS011;53689;56.878;60.672;2023-02-16T12:30:25;23.95;;;14.88;;
62523;SDS011;53689;56.878;60.672;2023-02-16T12:33:01;27.75;;;15.73;;
62523;SDS011;53689;56.878;60.672;2023-02-16T12:35:48;25.05;;;15.70;;
62523;SDS011;53689;56.878;60.672;2023-02-16T12:38:26;24.92;;;15.48;;
62523;SDS011;53689;56.878;60.672;2023-02-16T12:41:06;32.78;;;17.15;;
62523;SDS011;53689;56.878;60.672;2023-02-16T12:43:42;27.15;;;15.77;;
62523;SDS011;53689;56.878;60.672;2023-02-16T12:46:13;26.95;;;16.38;;
62523;SDS011;53689;56.878;60.672;2023-02-16T12:48:49;28.13;;;17.05;;
62523;SDS011;53689;56.878;60.672;2023-02-16T12:51:21;25.60;;;16.45;;
62523;SDS011;53689;56.878;60.672;2023-02-16T12:53:54;28.08;;;16.13;;
62523;SDS011;53689;56.878;60.672;2023-02-16T12:56:27;21.20;;;13.77;;
62523;SDS011;53689;56.878;60.672;2023-02-16T12:59:12;25.08;;;15.32;;
62523;SDS011;53689;56.878;60.672;2023-02-16T13:01:45;21.65;;;14.00;;
62523;SDS011;53689;56.878;60.672;2023-02-16T13:04:17;25.45;;;14.50;;
62523;SDS011;53689;56.878;60.672;2023-02-16T13:06:49;27.30;;;14.45;;
62523;SDS011;53689;56.878;60.672;2023-02-16T13:09:25;20.90;;;13.95;;
62523;SDS011;53689;56.878;60.672;2023-02-16T13:12:04;23.90;;;14.47;;
62523;SDS011;53689;56.878;60.672;2023-02-16T13:14:40;21.55;;;13.90;;
62523;SDS011;53689;56.878;60.672;2023-02-16T13:17:13;22.98;;;13.80;;
62523;SDS011;53689;56.878;60.672;2023-02-16T13:19:43;23.83;;;13.27;;
62523;SDS011;53689;56.878;60.672;2023-02-16T13:22:26;22.60;;;13.30;;
62523;SDS011;53689;56.878;60.672;2023-02-16T13:25:21;24.83;;;13.32;;
62523;SDS011;53689;56.878;60.672;2023-02-16T13:28:12;23.17;;;12.93;;
62523;SDS011;53689;56.878;60.672;2023-02-16T13:31:07;22.60;;;13.23;;
62523;SDS011;53689;56.878;60.672;2023-02-16T13:33:48;23.45;;;13.25;;
62523;SDS011;53689;56.878;60.672;2023-02-16T13:36:30;22.23;;;13.63;;
62523;SDS011;53689;56.878;60.672;2023-02-16T13:42:05;23.17;;;13.43;;
62523;SDS011;53689;56.878;60.672;2023-02-16T13:44:51;22.15;;;12.82;;
62523;SDS011;53689;56.878;60.672;2023-02-16T13:47:25;24.60;;;12.27;;
62523;SDS011;53689;56.878;60.672;2023-02-16T13:49:59;20.52;;;12.70;;
62523;SDS011;53689;56.878;60.672;2023-02-16T13:52:31;22.67;;;13.27;;
62523;SDS011;53689;56.878;60.672;2023-02-16T13:55:02;20.75;;;12.30;;
62523;SDS011;53689;56.878;60.672;2023-02-16T14:00:25;22.80;;;12.52;;
62523;SDS011;53689;56.878;60.672;2023-02-16T14:02:58;23.75;;;13.25;;
62523;SDS011;53689;56.878;60.672;2023-02-16T14:05:32;23.15;;;13.25;;
62523;SDS011;53689;56.878;60.672;2023-02-16T14:08:15;21.17;;;12.30;;
62523;SDS011;53689;56.878;60.672;2023-02-16T14:10:58;23.20;;;12.18;;
62523;SDS011;53689;56.878;60.672;2023-02-16T14:13:43;24.65;;;12.60;;
62523;SDS011;53689;56.878;60.672;2023-02-16T14:16:30;20.38;;;11.95;;
62523;SDS011;53689;56.878;60.672;2023-02-16T14:19:02;25.73;;;13.38;;
62523;SDS011;53689;56.878;60.672;2023-02-16T14:21:42;22.58;;;12.55;;
62523;SDS011;53689;56.878;60.672;2023-02-16T14:24:12;22.27;;;11.60;;
62523;SDS011;53689;56.878;60.672;2023-02-16T14:26:55;22.38;;;12.73;;
62523;SDS011;53689;56.878;60.672;2023-02-16T14:29:25;21.87;;;13.83;;
62523;SDS011;53689;56.878;60.672;2023-02-16T14:31:57;20.02;;;10.68;;
62523;SDS011;53689;56.878;60.672;2023-02-16T14:34:34;21.42;;;12.82;;
62523;SDS011;53689;56.878;60.672;2023-02-16T14:37:07;22.48;;;13.25;;
62523;SDS011;53689;56.878;60.672;2023-02-16T14:39:54;20.52;;;11.85;;
62523;SDS011;53689;56.878;60.672;2023-02-16T14:42:34;19.40;;;11.45;;
62523;SDS011;53689;56.878;60.672;2023-02-16T14:45:09;18.70;;;10.68;;
62523;SDS011;53689;56.878;60.672;2023-02-16T14:47:48;20.90;;;12.18;;
62523;SDS011;53689;56.878;60.672;2023-02-16T14:53:21;26.45;;;12.63;;
62523;SDS011;53689;56.878;60.672;2023-02-16T14:56:22;20.40;;;12.05;;
62523;SDS011;53689;56.878;60.672;2023-02-16T14:59:00;18.33;;;11.80;;
62523;SDS011;53689;56.878;60.672;2023-02-16T15:01:37;25.35;;;13.63;;
62523;SDS011;53689;56.878;60.672;2023-02-16T15:04:07;20.45;;;11.55;;
62523;SDS011;53689;56.878;60.672;2023-02-16T15:06:38;21.33;;;12.65;;